sensor_id;sensor_type;location;lat;lon;timestamp;P1;P2;P0
70691;PMS5003;58267;51.156;17.044;2024-01-10T00:01:29;264;220;
70691;PMS5003;58267;51.156;17.044;2024-01-10T00:03:54;282;244;
70691;PMS5003;58267;51.156;17.044;2024-01-10T00:06:20;285;238;
70691;PMS5003;58267;51.156;17.044;2024-01-10T00:08:46;269;235;
70691;PMS5003;58267;51.156;17.044;2024-01-10T00:11:11;252;219;
70691;PMS5003;58267;51.156;17.044;2024-01-10T00:13:36;284;242;
70691;PMS5003;58267;51.156;17.044;2024-01-10T00:16:02;308;259;
70691;PMS5003;58267;51.156;17.044;2024-01-10T00:18:28;308;260;
70691;PMS5003;58267;51.156;17.044;2024-01-10T00:20:53;299;255;
70691;PMS5003;58267;51.156;17.044;2024-01-10T00:23:18;307;258;
70691;PMS5003;58267;51.156;17.044;2024-01-10T00:25:44;284;246;
70691;PMS5003;58267;51.156;17.044;2024-01-10T00:28:09;176;156;
70691;PMS5003;58267;51.156;17.044;2024-01-10T00:30:34;297;255;
70691;PMS5003;58267;51.156;17.044;2024-01-10T00:32:59;307;260;
70691;PMS5003;58267;51.156;17.044;2024-01-10T00:35:25;285;256;
70691;PMS5003;58267;51.156;17.044;2024-01-10T00:37:51;281;241;
70691;PMS5003;58267;51.156;17.044;2024-01-10T00:40:16;300;249;
70691;PMS5003;58267;51.156;17.044;2024-01-10T00:42:42;313;258;
70691;PMS5003;58267;51.156;17.044;2024-01-10T00:45:08;309;252;
70691;PMS5003;58267;51.156;17.044;2024-01-10T00:47:33;304;252;
70691;PMS5003;58267;51.156;17.044;2024-01-10T00:49:58;319;270;
70691;PMS5003;58267;51.156;17.044;2024-01-10T00:52:24;306;252;
70691;PMS5003;58267;51.156;17.044;2024-01-10T00:54:49;306;257;
70691;PMS5003;58267;51.156;17.044;2024-01-10T00:57:15;310;259;
70691;PMS5003;58267;51.156;17.044;2024-01-10T00:59:40;301;258;
70691;PMS5003;58267;51.156;17.044;2024-01-10T01:02:05;291;250;
70691;PMS5003;58267;51.156;17.044;2024-01-10T01:04:31;287;253;
70691;PMS5003;58267;51.156;17.044;2024-01-10T01:06:56;339;274;
70691;PMS5003;58267;51.156;17.044;2024-01-10T01:09:21;274;248;
70691;PMS5003;58267;51.156;17.044;2024-01-10T01:11:46;298;248;
70691;PMS5003;58267;51.156;17.044;2024-01-10T01:14:12;295;249;
70691;PMS5003;58267;51.156;17.044;2024-01-10T01:16:37;281;245;
70691;PMS5003;58267;51.156;17.044;2024-01-10T01:19:02;335;274;
70691;PMS5003;58267;51.156;17.044;2024-01-10T01:21:28;304;252;
70691;PMS5003;58267;51.156;17.044;2024-01-10T01:23:54;293;245;
70691;PMS5003;58267;51.156;17.044;2024-01-10T01:26:19;294;248;
70691;PMS5003;58267;51.156;17.044;2024-01-10T01:28:44;300;261;
70691;PMS5003;58267;51.156;17.044;2024-01-10T01:31:10;331;263;
70691;PMS5003;58267;51.156;17.044;2024-01-10T01:33:35;309;264;
70691;PMS5003;58267;51.156;17.044;2024-01-10T01:36:00;291;249;
70691;PMS5003;58267;51.156;17.044;2024-01-10T01:38:26;300;259;
70691;PMS5003;58267;51.156;17.044;2024-01-10T01:40:52;313;252;
70691;PMS5003;58267;51.156;17.044;2024-01-10T01:43:18;293;248;
70691;PMS5003;58267;51.156;17.044;2024-01-10T01:45:43;303;253;
70691;PMS5003;58267;51.156;17.044;2024-01-10T01:48:08;263;238;
70691;PMS5003;58267;51.156;17.044;2024-01-10T01:50:35;283;249;
70691;PMS5003;58267;51.156;17.044;2024-01-10T01:53:00;281;242;
70691;PMS5003;58267;51.156;17.044;2024-01-10T01:55:26;291;245;
70691;PMS5003;58267;51.156;17.044;2024-01-10T01:57:51;288;250;
70691;PMS5003;58267;51.156;17.044;2024-01-10T02:00:16;293;267;
70691;PMS5003;58267;51.156;17.044;2024-01-10T02:02:42;302;245;
70691;PMS5003;58267;51.156;17.044;2024-01-10T02:05:07;295;250;
70691;PMS5003;58267;51.156;17.044;2024-01-10T02:07:33;315;267;
70691;PMS5003;58267;51.156;17.044;2024-01-10T02:09:58;280;231;
70691;PMS5003;58267;51.156;17.044;2024-01-10T02:12:24;272;226;
70691;PMS5003;58267;51.156;17.044;2024-01-10T02:14:50;302;260;
70691;PMS5003;58267;51.156;17.044;2024-01-10T02:17:16;291;243;
70691;PMS5003;58267;51.156;17.044;2024-01-10T02:19:41;291;251;
70691;PMS5003;58267;51.156;17.044;2024-01-10T02:22:07;291;239;
70691;PMS5003;58267;51.156;17.044;2024-01-10T02:24:33;286;245;
70691;PMS5003;58267;51.156;17.044;2024-01-10T02:26:58;282;242;
70691;PMS5003;58267;51.156;17.044;2024-01-10T02:29:24;296;245;
70691;PMS5003;58267;51.156;17.044;2024-01-10T02:31:49;290;244;
70691;PMS5003;58267;51.156;17.044;2024-01-10T02:34:15;277;238;
70691;PMS5003;58267;51.156;17.044;2024-01-10T02:36:40;271;235;
70691;PMS5003;58267;51.156;17.044;2024-01-10T02:39:06;266;230;
70691;PMS5003;58267;51.156;17.044;2024-01-10T02:41:31;271;238;
70691;PMS5003;58267;51.156;17.044;2024-01-10T02:43:57;279;234;
70691;PMS5003;58267;51.156;17.044;2024-01-10T02:46:23;258;222;
70691;PMS5003;58267;51.156;17.044;2024-01-10T02:48:48;254;218;
70691;PMS5003;58267;51.156;17.044;2024-01-10T02:51:14;242;202;
70691;PMS5003;58267;51.156;17.044;2024-01-10T02:53:39;238;201;
70691;PMS5003;58267;51.156;17.044;2024-01-10T02:56:04;213;190;
70691;PMS5003;58267;51.156;17.044;2024-01-10T02:58:29;247;212;
70691;PMS5003;58267;51.156;17.044;2024-01-10T03:00:55;254;217;
70691;PMS5003;58267;51.156;17.044;2024-01-10T03:03:20;250;213;
70691;PMS5003;58267;51.156;17.044;2024-01-10T03:05:46;262;210;
70691;PMS5003;58267;51.156;17.044;2024-01-10T03:08:12;261;224;
70691;PMS5003;58267;51.156;17.044;2024-01-10T03:10:37;252;221;
70691;PMS5003;58267;51.156;17.044;2024-01-10T03:13:03;240;206;
70691;PMS5003;58267;51.156;17.044;2024-01-10T03:15:29;238;205;
70691;PMS5003;58267;51.156;17.044;2024-01-10T03:17:54;252;216;
70691;PMS5003;58267;51.156;17.044;2024-01-10T03:20:20;242;210;
70691;PMS5003;58267;51.156;17.044;2024-01-10T03:22:45;269;228;
70691;PMS5003;58267;51.156;17.044;2024-01-10T03:25:11;241;212;
70691;PMS5003;58267;51.156;17.044;2024-01-10T03:27:36;267;226;
70691;PMS5003;58267;51.156;17.044;2024-01-10T03:30:02;245;208;
70691;PMS5003;58267;51.156;17.044;2024-01-10T03:32:27;235;209;
70691;PMS5003;58267;51.156;17.044;2024-01-10T03:34:52;269;220;
70691;PMS5003;58267;51.156;17.044;2024-01-10T03:37:17;244;218;
70691;PMS5003;58267;51.156;17.044;2024-01-10T03:39:43;243;208;
70691;PMS5003;58267;51.156;17.044;2024-01-10T03:42:08;267;230;
70691;PMS5003;58267;51.156;17.044;2024-01-10T03:44:34;253;212;
70691;PMS5003;58267;51.156;17.044;2024-01-10T03:46:59;246;210;
70691;PMS5003;58267;51.156;17.044;2024-01-10T03:49:25;266;221;
70691;PMS5003;58267;51.156;17.044;2024-01-10T03:51:50;266;232;
70691;PMS5003;58267;51.156;17.044;2024-01-10T03:54:16;262;227;
70691;PMS5003;58267;51.156;17.044;2024-01-10T03:56:41;265;225;
70691;PMS5003;58267;51.156;17.044;2024-01-10T03:59:07;262;227;
70691;PMS5003;58267;51.156;17.044;2024-01-10T04:01:32;261;222;
70691;PMS5003;58267;51.156;17.044;2024-01-10T04:03:58;269;231;
70691;PMS5003;58267;51.156;17.044;2024-01-10T04:06:23;263;230;
70691;PMS5003;58267;51.156;17.044;2024-01-10T04:08:48;296;243;
70691;PMS5003;58267;51.156;17.044;2024-01-10T04:11:14;264;218;
70691;PMS5003;58267;51.156;17.044;2024-01-10T04:13:39;250;221;
70691;PMS5003;58267;51.156;17.044;2024-01-10T04:16:04;265;224;
70691;PMS5003;58267;51.156;17.044;2024-01-10T04:18:30;265;226;
70691;PMS5003;58267;51.156;17.044;2024-01-10T04:20:55;259;222;
70691;PMS5003;58267;51.156;17.044;2024-01-10T04:23:20;265;221;
70691;PMS5003;58267;51.156;17.044;2024-01-10T04:25:46;256;232;
70691;PMS5003;58267;51.156;17.044;2024-01-10T04:28:11;255;221;
70691;PMS5003;58267;51.156;17.044;2024-01-10T04:30:37;245;211;
70691;PMS5003;58267;51.156;17.044;2024-01-10T04:33:02;261;220;
70691;PMS5003;58267;51.156;17.044;2024-01-10T04:35:27;261;214;
70691;PMS5003;58267;51.156;17.044;2024-01-10T04:37:53;261;219;
70691;PMS5003;58267;51.156;17.044;2024-01-10T04:40:18;267;216;
70691;PMS5003;58267;51.156;17.044;2024-01-10T04:42:44;263;223;
70691;PMS5003;58267;51.156;17.044;2024-01-10T04:45:09;269;227;
70691;PMS5003;58267;51.156;17.044;2024-01-10T04:47:35;259;218;
70691;PMS5003;58267;51.156;17.044;2024-01-10T04:50:00;269;225;
70691;PMS5003;58267;51.156;17.044;2024-01-10T04:52:25;264;223;
70691;PMS5003;58267;51.156;17.044;2024-01-10T04:54:50;249;218;
70691;PMS5003;58267;51.156;17.044;2024-01-10T04:57:16;205;192;
70691;PMS5003;58267;51.156;17.044;2024-01-10T04:59:41;248;214;
70691;PMS5003;58267;51.156;17.044;2024-01-10T05:02:07;260;227;
70691;PMS5003;58267;51.156;17.044;2024-01-10T05:04:32;272;234;
70691;PMS5003;58267;51.156;17.044;2024-01-10T05:06:57;274;242;
70691;PMS5003;58267;51.156;17.044;2024-01-10T05:09:23;255;218;
70691;PMS5003;58267;51.156;17.044;2024-01-10T05:11:49;272;236;
70691;PMS5003;58267;51.156;17.044;2024-01-10T05:14:14;277;236;
70691;PMS5003;58267;51.156;17.044;2024-01-10T05:16:40;274;227;
70691;PMS5003;58267;51.156;17.044;2024-01-10T05:19:05;295;246;
70691;PMS5003;58267;51.156;17.044;2024-01-10T05:21:31;274;232;
70691;PMS5003;58267;51.156;17.044;2024-01-10T05:23:56;287;237;
70691;PMS5003;58267;51.156;17.044;2024-01-10T05:26:21;260;235;
70691;PMS5003;58267;51.156;17.044;2024-01-10T05:28:47;275;228;
70691;PMS5003;58267;51.156;17.044;2024-01-10T05:31:12;277;235;
70691;PMS5003;58267;51.156;17.044;2024-01-10T05:33:37;290;248;
70691;PMS5003;58267;51.156;17.044;2024-01-10T05:36:02;305;245;
70691;PMS5003;58267;51.156;17.044;2024-01-10T05:38:27;291;241;
70691;PMS5003;58267;51.156;17.044;2024-01-10T05:40:53;304;261;
70691;PMS5003;58267;51.156;17.044;2024-01-10T05:43:18;305;247;
70691;PMS5003;58267;51.156;17.044;2024-01-10T05:45:43;294;238;
70691;PMS5003;58267;51.156;17.044;2024-01-10T05:48:09;290;247;
70691;PMS5003;58267;51.156;17.044;2024-01-10T05:50:35;286;236;
70691;PMS5003;58267;51.156;17.044;2024-01-10T05:53:00;291;247;
70691;PMS5003;58267;51.156;17.044;2024-01-10T05:55:25;299;249;
70691;PMS5003;58267;51.156;17.044;2024-01-10T05:57:50;290;256;
70691;PMS5003;58267;51.156;17.044;2024-01-10T06:00:17;295;258;
70691;PMS5003;58267;51.156;17.044;2024-01-10T06:02:43;328;276;
70691;PMS5003;58267;51.156;17.044;2024-01-10T06:05:08;315;256;
70691;PMS5003;58267;51.156;17.044;2024-01-10T06:07:33;304;259;
70691;PMS5003;58267;51.156;17.044;2024-01-10T06:09:59;307;260;
70691;PMS5003;58267;51.156;17.044;2024-01-10T06:12:24;297;248;
70691;PMS5003;58267;51.156;17.044;2024-01-10T06:14:49;291;254;
70691;PMS5003;58267;51.156;17.044;2024-01-10T06:17:14;292;241;
70691;PMS5003;58267;51.156;17.044;2024-01-10T06:19:40;298;253;
70691;PMS5003;58267;51.156;17.044;2024-01-10T06:22:05;288;248;
70691;PMS5003;58267;51.156;17.044;2024-01-10T06:24:31;287;252;
70691;PMS5003;58267;51.156;17.044;2024-01-10T06:26:56;312;258;
70691;PMS5003;58267;51.156;17.044;2024-01-10T06:29:21;277;235;
70691;PMS5003;58267;51.156;17.044;2024-01-10T06:31:46;296;245;
70691;PMS5003;58267;51.156;17.044;2024-01-10T06:34:11;296;241;
70691;PMS5003;58267;51.156;17.044;2024-01-10T06:36:37;301;246;
70691;PMS5003;58267;51.156;17.044;2024-01-10T06:39:03;225;183;
70691;PMS5003;58267;51.156;17.044;2024-01-10T06:41:29;315;253;
70691;PMS5003;58267;51.156;17.044;2024-01-10T06:43:54;312;278;
70691;PMS5003;58267;51.156;17.044;2024-01-10T06:46:19;296;239;
70691;PMS5003;58267;51.156;17.044;2024-01-10T06:48:44;275;241;
70691;PMS5003;58267;51.156;17.044;2024-01-10T06:51:10;305;265;
70691;PMS5003;58267;51.156;17.044;2024-01-10T06:53:35;325;266;
70691;PMS5003;58267;51.156;17.044;2024-01-10T06:56:01;298;253;
70691;PMS5003;58267;51.156;17.044;2024-01-10T06:58:26;319;274;
70691;PMS5003;58267;51.156;17.044;2024-01-10T07:00:52;311;272;
70691;PMS5003;58267;51.156;17.044;2024-01-10T07:03:17;310;266;
70691;PMS5003;58267;51.156;17.044;2024-01-10T07:05:43;298;261;
70691;PMS5003;58267;51.156;17.044;2024-01-10T07:08:08;314;270;
70691;PMS5003;58267;51.156;17.044;2024-01-10T07:10:33;231;180;
70691;PMS5003;58267;51.156;17.044;2024-01-10T07:12:59;312;255;
70691;PMS5003;58267;51.156;17.044;2024-01-10T07:15:24;289;252;
70691;PMS5003;58267;51.156;17.044;2024-01-10T07:17:50;304;250;
70691;PMS5003;58267;51.156;17.044;2024-01-10T07:20:16;329;263;
70691;PMS5003;58267;51.156;17.044;2024-01-10T07:22:41;341;267;
70691;PMS5003;58267;51.156;17.044;2024-01-10T07:25:07;309;259;
70691;PMS5003;58267;51.156;17.044;2024-01-10T07:27:32;302;259;
70691;PMS5003;58267;51.156;17.044;2024-01-10T07:29:58;321;263;
70691;PMS5003;58267;51.156;17.044;2024-01-10T07:32:24;310;253;
70691;PMS5003;58267;51.156;17.044;2024-01-10T07:34:49;308;256;
70691;PMS5003;58267;51.156;17.044;2024-01-10T07:37:15;326;268;
70691;PMS5003;58267;51.156;17.044;2024-01-10T07:39:40;306;253;
70691;PMS5003;58267;51.156;17.044;2024-01-10T07:42:05;277;240;
70691;PMS5003;58267;51.156;17.044;2024-01-10T07:44:31;337;270;
70691;PMS5003;58267;51.156;17.044;2024-01-10T07:46:56;316;269;
70691;PMS5003;58267;51.156;17.044;2024-01-10T07:49:21;311;269;
70691;PMS5003;58267;51.156;17.044;2024-01-10T07:51:46;327;267;
70691;PMS5003;58267;51.156;17.044;2024-01-10T07:54:12;310;263;
70691;PMS5003;58267;51.156;17.044;2024-01-10T07:56:37;327;270;
70691;PMS5003;58267;51.156;17.044;2024-01-10T07:59:02;308;262;
70691;PMS5003;58267;51.156;17.044;2024-01-10T08:01:28;338;280;
70691;PMS5003;58267;51.156;17.044;2024-01-10T08:03:53;282;252;
70691;PMS5003;58267;51.156;17.044;2024-01-10T08:06:18;330;283;
70691;PMS5003;58267;51.156;17.044;2024-01-10T08:08:44;337;277;
70691;PMS5003;58267;51.156;17.044;2024-01-10T08:11:10;340;290;
70691;PMS5003;58267;51.156;17.044;2024-01-10T08:13:35;304;270;
70691;PMS5003;58267;51.156;17.044;2024-01-10T08:16:00;317;268;
70691;PMS5003;58267;51.156;17.044;2024-01-10T08:18:25;313;277;
70691;PMS5003;58267;51.156;17.044;2024-01-10T08:20:51;351;280;
70691;PMS5003;58267;51.156;17.044;2024-01-10T08:23:16;339;290;
70691;PMS5003;58267;51.156;17.044;2024-01-10T08:25:41;342;277;
70691;PMS5003;58267;51.156;17.044;2024-01-10T08:28:06;326;289;
70691;PMS5003;58267;51.156;17.044;2024-01-10T08:30:32;309;269;
70691;PMS5003;58267;51.156;17.044;2024-01-10T08:32:58;334;283;
70691;PMS5003;58267;51.156;17.044;2024-01-10T08:35:24;216;203;
70691;PMS5003;58267;51.156;17.044;2024-01-10T08:37:49;317;273;
70691;PMS5003;58267;51.156;17.044;2024-01-10T08:40:16;309;272;
70691;PMS5003;58267;51.156;17.044;2024-01-10T08:42:41;352;289;
70691;PMS5003;58267;51.156;17.044;2024-01-10T08:45:07;257;204;
70691;PMS5003;58267;51.156;17.044;2024-01-10T08:47:32;329;274;
70691;PMS5003;58267;51.156;17.044;2024-01-10T08:49:58;321;281;
70691;PMS5003;58267;51.156;17.044;2024-01-10T08:52:24;314;279;
70691;PMS5003;58267;51.156;17.044;2024-01-10T08:54:49;326;274;
70691;PMS5003;58267;51.156;17.044;2024-01-10T08:57:15;330;272;
70691;PMS5003;58267;51.156;17.044;2024-01-10T08:59:41;328;275;
70691;PMS5003;58267;51.156;17.044;2024-01-10T09:02:06;299;262;
70691;PMS5003;58267;51.156;17.044;2024-01-10T09:04:31;295;253;
70691;PMS5003;58267;51.156;17.044;2024-01-10T09:06:57;325;279;
70691;PMS5003;58267;51.156;17.044;2024-01-10T09:09:22;347;284;
70691;PMS5003;58267;51.156;17.044;2024-01-10T09:11:48;307;273;
70691;PMS5003;58267;51.156;17.044;2024-01-10T09:14:13;340;278;
70691;PMS5003;58267;51.156;17.044;2024-01-10T09:16:39;326;287;
70691;PMS5003;58267;51.156;17.044;2024-01-10T09:19:04;339;285;
70691;PMS5003;58267;51.156;17.044;2024-01-10T09:21:30;330;292;
70691;PMS5003;58267;51.156;17.044;2024-01-10T09:23:55;353;297;
70691;PMS5003;58267;51.156;17.044;2024-01-10T09:26:22;235;174;
70691;PMS5003;58267;51.156;17.044;2024-01-10T09:28:47;343;286;
70691;PMS5003;58267;51.156;17.044;2024-01-10T09:31:13;345;293;
70691;PMS5003;58267;51.156;17.044;2024-01-10T09:33:38;335;286;
70691;PMS5003;58267;51.156;17.044;2024-01-10T09:36:04;342;282;
70691;PMS5003;58267;51.156;17.044;2024-01-10T09:38:29;350;294;
70691;PMS5003;58267;51.156;17.044;2024-01-10T09:40:57;341;289;
70691;PMS5003;58267;51.156;17.044;2024-01-10T09:43:24;291;230;
70691;PMS5003;58267;51.156;17.044;2024-01-10T09:45:49;329;283;
70691;PMS5003;58267;51.156;17.044;2024-01-10T09:48:14;360;298;
70691;PMS5003;58267;51.156;17.044;2024-01-10T09:50:40;333;276;
70691;PMS5003;58267;51.156;17.044;2024-01-10T09:53:10;171;157;
70691;PMS5003;58267;51.156;17.044;2024-01-10T09:55:35;343;297;
70691;PMS5003;58267;51.156;17.044;2024-01-10T09:58:01;361;292;
70691;PMS5003;58267;51.156;17.044;2024-01-10T10:00:26;351;291;
70691;PMS5003;58267;51.156;17.044;2024-01-10T10:02:51;337;298;
70691;PMS5003;58267;51.156;17.044;2024-01-10T10:05:17;352;300;
70691;PMS5003;58267;51.156;17.044;2024-01-10T10:07:43;352;292;
70691;PMS5003;58267;51.156;17.044;2024-01-10T10:10:08;332;280;
70691;PMS5003;58267;51.156;17.044;2024-01-10T10:15:00;325;274;
70691;PMS5003;58267;51.156;17.044;2024-01-10T10:17:23;322;272;
70691;PMS5003;58267;51.156;17.044;2024-01-10T10:19:49;334;277;
70691;PMS5003;58267;51.156;17.044;2024-01-10T10:22:15;323;272;
70691;PMS5003;58267;51.156;17.044;2024-01-10T10:24:40;296;255;
70691;PMS5003;58267;51.156;17.044;2024-01-10T10:27:07;294;253;
70691;PMS5003;58267;51.156;17.044;2024-01-10T10:29:32;290;254;
70691;PMS5003;58267;51.156;17.044;2024-01-10T10:31:57;308;268;
70691;PMS5003;58267;51.156;17.044;2024-01-10T10:34:23;330;268;
70691;PMS5003;58267;51.156;17.044;2024-01-10T10:36:48;308;263;
70691;PMS5003;58267;51.156;17.044;2024-01-10T10:39:15;296;255;
70691;PMS5003;58267;51.156;17.044;2024-01-10T10:41:39;307;262;
70691;PMS5003;58267;51.156;17.044;2024-01-10T10:44:05;284;242;
70691;PMS5003;58267;51.156;17.044;2024-01-10T10:46:30;270;241;
70691;PMS5003;58267;51.156;17.044;2024-01-10T10:48:56;282;245;
70691;PMS5003;58267;51.156;17.044;2024-01-10T10:51:23;290;245;
70691;PMS5003;58267;51.156;17.044;2024-01-10T10:53:46;301;244;
70691;PMS5003;58267;51.156;17.044;2024-01-10T10:56:12;292;248;
70691;PMS5003;58267;51.156;17.044;2024-01-10T10:58:38;281;246;
70691;PMS5003;58267;51.156;17.044;2024-01-10T11:01:04;270;239;
70691;PMS5003;58267;51.156;17.044;2024-01-10T11:03:28;311;260;
70691;PMS5003;58267;51.156;17.044;2024-01-10T11:05:53;273;241;
70691;PMS5003;58267;51.156;17.044;2024-01-10T11:08:19;293;247;
70691;PMS5003;58267;51.156;17.044;2024-01-10T11:10:44;273;242;
70691;PMS5003;58267;51.156;17.044;2024-01-10T11:13:17;263;226;
70691;PMS5003;58267;51.156;17.044;2024-01-10T11:15:42;262;226;
70691;PMS5003;58267;51.156;17.044;2024-01-10T11:18:05;281;247;
70691;PMS5003;58267;51.156;17.044;2024-01-10T11:20:32;263;238;
70691;PMS5003;58267;51.156;17.044;2024-01-10T11:22:56;259;230;
70691;PMS5003;58267;51.156;17.044;2024-01-10T11:25:17;261;226;
70691;PMS5003;58267;51.156;17.044;2024-01-10T11:27:42;260;223;
70691;PMS5003;58267;51.156;17.044;2024-01-10T11:30:09;257;225;
70691;PMS5003;58267;51.156;17.044;2024-01-10T11:32:34;265;222;
70691;PMS5003;58267;51.156;17.044;2024-01-10T11:35:00;270;229;
70691;PMS5003;58267;51.156;17.044;2024-01-10T11:37:27;260;231;
70691;PMS5003;58267;51.156;17.044;2024-01-10T11:39:50;269;230;
70691;PMS5003;58267;51.156;17.044;2024-01-10T11:47:06;263;233;
70691;PMS5003;58267;51.156;17.044;2024-01-10T11:49:33;264;226;
70691;PMS5003;58267;51.156;17.044;2024-01-10T11:51:58;286;236;
70691;PMS5003;58267;51.156;17.044;2024-01-10T11:56:49;259;226;
70691;PMS5003;58267;51.156;17.044;2024-01-10T11:59:15;268;227;
70691;PMS5003;58267;51.156;17.044;2024-01-10T12:01:41;271;242;
70691;PMS5003;58267;51.156;17.044;2024-01-10T12:04:05;264;225;
70691;PMS5003;58267;51.156;17.044;2024-01-10T12:06:31;248;214;
70691;PMS5003;58267;51.156;17.044;2024-01-10T12:08:56;251;215;
70691;PMS5003;58267;51.156;17.044;2024-01-10T12:11:22;251;211;
70691;PMS5003;58267;51.156;17.044;2024-01-10T12:13:47;240;214;
70691;PMS5003;58267;51.156;17.044;2024-01-10T12:16:13;249;210;
70691;PMS5003;58267;51.156;17.044;2024-01-10T12:18:39;252;221;
70691;PMS5003;58267;51.156;17.044;2024-01-10T12:21:04;246;217;
70691;PMS5003;58267;51.156;17.044;2024-01-10T12:23:29;249;214;
70691;PMS5003;58267;51.156;17.044;2024-01-10T12:25:55;258;221;
70691;PMS5003;58267;51.156;17.044;2024-01-10T12:28:20;234;209;
70691;PMS5003;58267;51.156;17.044;2024-01-10T12:30:46;238;205;
70691;PMS5003;58267;51.156;17.044;2024-01-10T12:33:11;244;200;
70691;PMS5003;58267;51.156;17.044;2024-01-10T12:35:36;224;198;
70691;PMS5003;58267;51.156;17.044;2024-01-10T12:38:02;225;201;
70691;PMS5003;58267;51.156;17.044;2024-01-10T12:40:28;242;206;
70691;PMS5003;58267;51.156;17.044;2024-01-10T12:45:22;225;199;
70691;PMS5003;58267;51.156;17.044;2024-01-10T12:47:44;223;201;
70691;PMS5003;58267;51.156;17.044;2024-01-10T12:50:11;236;204;
70691;PMS5003;58267;51.156;17.044;2024-01-10T12:52:41;237;204;
70691;PMS5003;58267;51.156;17.044;2024-01-10T12:55:01;212;191;
70691;PMS5003;58267;51.156;17.044;2024-01-10T12:57:26;225;191;
70691;PMS5003;58267;51.156;17.044;2024-01-10T12:59:52;224;186;
70691;PMS5003;58267;51.156;17.044;2024-01-10T13:02:17;229;196;
70691;PMS5003;58267;51.156;17.044;2024-01-10T13:04:44;178;138;
70691;PMS5003;58267;51.156;17.044;2024-01-10T13:07:09;249;214;
70691;PMS5003;58267;51.156;17.044;2024-01-10T13:09:34;228;199;
70691;PMS5003;58267;51.156;17.044;2024-01-10T13:12:00;246;212;
70691;PMS5003;58267;51.156;17.044;2024-01-10T13:14:26;229;201;
70691;PMS5003;58267;51.156;17.044;2024-01-10T13:16:51;240;210;
70691;PMS5003;58267;51.156;17.044;2024-01-10T13:19:17;252;222;
70691;PMS5003;58267;51.156;17.044;2024-01-10T13:21:42;237;204;
70691;PMS5003;58267;51.156;17.044;2024-01-10T13:24:07;228;199;
70691;PMS5003;58267;51.156;17.044;2024-01-10T13:26:33;229;201;
70691;PMS5003;58267;51.156;17.044;2024-01-10T13:28:58;248;210;
70691;PMS5003;58267;51.156;17.044;2024-01-10T13:31:23;242;204;
70691;PMS5003;58267;51.156;17.044;2024-01-10T13:33:49;240;204;
70691;PMS5003;58267;51.156;17.044;2024-01-10T13:36:15;240;209;
70691;PMS5003;58267;51.156;17.044;2024-01-10T13:38:40;229;206;
70691;PMS5003;58267;51.156;17.044;2024-01-10T13:41:05;246;217;
70691;PMS5003;58267;51.156;17.044;2024-01-10T13:43:31;259;216;
70691;PMS5003;58267;51.156;17.044;2024-01-10T13:45:56;246;218;
70691;PMS5003;58267;51.156;17.044;2024-01-10T13:48:22;266;217;
70691;PMS5003;58267;51.156;17.044;2024-01-10T13:50:48;265;224;
70691;PMS5003;58267;51.156;17.044;2024-01-10T13:53:14;282;232;
70691;PMS5003;58267;51.156;17.044;2024-01-10T13:55:39;256;217;
70691;PMS5003;58267;51.156;17.044;2024-01-10T13:58:04;266;221;
70691;PMS5003;58267;51.156;17.044;2024-01-10T14:00:29;229;204;
70691;PMS5003;58267;51.156;17.044;2024-01-10T14:02:55;245;207;
70691;PMS5003;58267;51.156;17.044;2024-01-10T14:05:21;242;217;
70691;PMS5003;58267;51.156;17.044;2024-01-10T14:07:46;241;205;
70691;PMS5003;58267;51.156;17.044;2024-01-10T14:10:11;237;199;
70691;PMS5003;58267;51.156;17.044;2024-01-10T14:12:37;234;205;
70691;PMS5003;58267;51.156;17.044;2024-01-10T14:15:03;239;207;
70691;PMS5003;58267;51.156;17.044;2024-01-10T14:17:28;228;205;
70691;PMS5003;58267;51.156;17.044;2024-01-10T14:19:53;266;227;
70691;PMS5003;58267;51.156;17.044;2024-01-10T14:22:18;262;226;
70691;PMS5003;58267;51.156;17.044;2024-01-10T14:24:44;256;215;
70691;PMS5003;58267;51.156;17.044;2024-01-10T14:27:09;256;223;
70691;PMS5003;58267;51.156;17.044;2024-01-10T14:29:34;260;226;
70691;PMS5003;58267;51.156;17.044;2024-01-10T14:32:00;247;209;
70691;PMS5003;58267;51.156;17.044;2024-01-10T14:34:25;254;223;
70691;PMS5003;58267;51.156;17.044;2024-01-10T14:36:51;274;230;
70691;PMS5003;58267;51.156;17.044;2024-01-10T14:39:17;250;215;
70691;PMS5003;58267;51.156;17.044;2024-01-10T14:41:42;245;217;
70691;PMS5003;58267;51.156;17.044;2024-01-10T14:44:08;243;218;
70691;PMS5003;58267;51.156;17.044;2024-01-10T14:46:33;258;222;
70691;PMS5003;58267;51.156;17.044;2024-01-10T14:48:59;252;218;
70691;PMS5003;58267;51.156;17.044;2024-01-10T14:51:25;272;224;
70691;PMS5003;58267;51.156;17.044;2024-01-10T14:53:50;257;222;
70691;PMS5003;58267;51.156;17.044;2024-01-10T14:56:15;261;225;
70691;PMS5003;58267;51.156;17.044;2024-01-10T14:58:41;256;220;
70691;PMS5003;58267;51.156;17.044;2024-01-10T15:01:07;244;223;
70691;PMS5003;58267;51.156;17.044;2024-01-10T15:03:32;246;217;
70691;PMS5003;58267;51.156;17.044;2024-01-10T15:05:58;258;226;
70691;PMS5003;58267;51.156;17.044;2024-01-10T15:08:23;263;224;
70691;PMS5003;58267;51.156;17.044;2024-01-10T15:10:48;267;226;
70691;PMS5003;58267;51.156;17.044;2024-01-10T15:13:14;267;227;
70691;PMS5003;58267;51.156;17.044;2024-01-10T15:15:39;259;220;
70691;PMS5003;58267;51.156;17.044;2024-01-10T15:18:05;251;217;
70691;PMS5003;58267;51.156;17.044;2024-01-10T15:20:30;285;233;
70691;PMS5003;58267;51.156;17.044;2024-01-10T15:22:55;272;236;
70691;PMS5003;58267;51.156;17.044;2024-01-10T15:25:21;252;218;
70691;PMS5003;58267;51.156;17.044;2024-01-10T15:27:46;263;223;
70691;PMS5003;58267;51.156;17.044;2024-01-10T15:30:12;258;218;
70691;PMS5003;58267;51.156;17.044;2024-01-10T15:32:37;269;225;